Time;durP1;ratioP1;P1;durP2;ratioP2;P2;SDS_P1;SDS_P2;PMS_P1;PMS_P2;Temp;Humidity;BMP_temperature;BMP_pressure;BME280_temperature;BME280_humidity;BME280_pressure;Samples;Min_cycle;Max_cycle;Signal;HPM_P1;HPM_P2
2022/06/28 00:01:53;;;;;;;4.30;3.70;;;;;;;15.72;100.00;100827.72;5072128;28;20179;-75
2022/06/28 00:04:19;;;;;;;4.07;3.47;;;;;;;15.70;100.00;100831.94;5071988;28;20179;-75
2022/06/28 00:06:46;;;;;;;2.53;2.33;;;;;;;15.72;100.00;100837.94;5071972;28;20262;-73
2022/06/28 00:09:14;;;;;;;2.07;1.97;;;;;;;15.70;100.00;100846.53;5071610;28;20202;-74
2022/06/28 00:11:40;;;;;;;1.20;1.20;;;;;;;15.71;100.00;100847.34;5072088;28;20174;-73
2022/06/28 00:16:04;;;;;;;2.13;2.03;;;;;;;15.70;100.00;100857.53;5072075;28;20581;-75
2022/06/28 00:16:51;;;;;;;0.33;0.33;;;;;;;15.70;100.00;100867.75;5071546;28;20210;-74
2022/06/28 00:19:16;;;;;;;19.77;2.93;;;;;;;15.70;100.00;100870.53;5071635;28;20304;-76
2022/06/28 00:21:42;;;;;;;2.23;1.97;;;;;;;15.72;100.00;100871.78;5071781;28;20170;-72
2022/06/28 00:24:08;;;;;;;2.67;2.27;;;;;;;15.72;100.00;100873.75;5071728;28;20170;-73
2022/06/28 00:26:33;;;;;;;1.57;1.47;;;;;;;15.73;100.00;100878.91;5071630;28;20212;-73
2022/06/28 00:28:58;;;;;;;0.90;0.90;;;;;;;15.75;100.00;100886.84;5071380;28;20285;-73
2022/06/28 00:31:25;;;;;;;4.73;4.37;;;;;;;15.75;100.00;100884.09;5071653;28;20529;-74
2022/06/28 00:33:51;;;;;;;3.47;3.27;;;;;;;15.74;100.00;100890.72;5071491;28;20170;-72
2022/06/28 00:36:16;;;;;;;0.90;0.90;;;;;;;15.73;100.00;100895.44;5071654;28;20173;-75
2022/06/28 00:38:41;;;;;;;2.53;2.33;;;;;;;15.73;100.00;100894.63;5071397;28;20185;-74
2022/06/28 00:41:07;;;;;;;2.07;1.97;;;;;;;15.70;100.00;100892.56;5070903;28;20242;-74
2022/06/28 00:43:34;;;;;;;2.73;2.53;;;;;;;15.68;100.00;100892.91;5063743;28;20187;-73
2022/06/28 00:46:00;;;;;;;1.23;1.17;;;;;;;15.68;100.00;100892.09;5066618;28;20181;-74
2022/06/28 00:48:26;;;;;;;2.07;1.97;;;;;;;15.70;100.00;100898.06;5070461;28;20209;-75
2022/06/28 00:50:52;;;;;;;1.13;1.13;;;;;;;15.68;100.00;100900.34;5071079;28;20180;-74
2022/06/28 00:53:18;;;;;;;2.47;1.70;;;;;;;15.68;100.00;100906.66;5071472;28;20175;-75
2022/06/28 00:55:45;;;;;;;2.43;2.23;;;;;;;15.66;100.00;100913.66;5071182;28;20213;-76
2022/06/28 00:58:12;;;;;;;0.63;0.63;;;;;;;15.63;100.00;100908.81;5070956;28;20170;-75
2022/06/28 01:00:42;;;;;;;2.47;2.27;;;;;;;15.63;100.00;100908.81;5071847;28;20198;-74
2022/06/28 01:03:09;;;;;;;2.17;1.53;;;;;;;15.59;100.00;100910.56;5071306;28;20175;-73
2022/06/28 01:05:36;;;;;;;6.80;2.43;;;;;;;15.57;100.00;100904.59;5053157;28;20630;-75
2022/06/28 01:08:04;;;;;;;2.67;1.53;;;;;;;15.58;100.00;100919.97;5070698;28;20198;-74
2022/06/28 01:10:29;;;;;;;0.97;0.97;;;;;;;15.54;100.00;100910.78;5071067;28;20171;-74
2022/06/28 01:12:54;;;;;;;1.90;1.77;;;;;;;15.52;100.00;100915.81;5070998;28;20258;-72
2022/06/28 01:15:20;;;;;;;1.27;1.20;;;;;;;15.50;100.00;100920.84;5070708;28;20225;-78
2022/06/28 01:17:45;;;;;;;1.17;1.07;;;;;;;15.48;100.00;100921.19;5070576;28;20182;-73
2022/06/28 01:20:11;;;;;;;2.83;2.63;;;;;;;15.45;100.00;100914.38;5070694;28;20173;-73
2022/06/28 01:22:41;;;;;;;7.73;4.80;;;;;;;15.39;100.00;100917.66;5070334;28;20553;-73
2022/06/28 01:25:08;;;;;;;2.80;2.60;;;;;;;15.34;100.00;100921.44;5070452;28;20416;-73
2022/06/28 01:27:34;;;;;;;2.03;1.93;;;;;;;15.31;100.00;100926.75;5070486;28;20194;-73
2022/06/28 01:30:01;;;;;;;2.70;2.50;;;;;;;15.29;100.00;100938.09;5071926;28;20652;-72
2022/06/28 01:32:28;;;;;;;1.57;1.40;;;;;;;15.26;100.00;100922.25;5072609;28;20194;-73
2022/06/28 01:34:53;;;;;;;3.53;3.23;;;;;;;15.22;100.00;100926.81;5070561;28;20418;-72
2022/06/28 01:37:19;;;;;;;2.57;2.37;;;;;;;15.21;100.00;100924.41;5070571;28;20226;-73
2022/06/28 01:39:44;;;;;;;1.90;1.80;;;;;;;15.19;100.00;100930.25;5070377;28;20249;-73
2022/06/28 01:42:10;;;;;;;1.63;1.53;;;;;;;15.16;100.00;100937.19;5070692;28;20171;-73
2022/06/28 01:44:35;;;;;;;1.33;1.30;;;;;;;15.14;100.00;100931.22;5070558;28;20171;-73
2022/06/28 01:47:04;;;;;;;1.67;1.57;;;;;;;15.13;100.00;100931.53;5069704;28;20194;-72
2022/06/28 01:49:29;;;;;;;1.13;1.13;;;;;;;15.10;100.00;100934.97;5070355;28;20662;-73
2022/06/28 01:51:54;;;;;;;1.60;1.50;;;;;;;15.05;100.00;100932.41;5070645;28;20174;-73
2022/06/28 01:54:20;;;;;;;3.13;2.83;;;;;;;14.97;100.00;100925.78;5070581;28;20167;-73
2022/06/28 01:56:45;;;;;;;1.00;1.00;;;;;;;14.91;100.00;100926.31;5070714;28;20257;-73
2022/06/28 01:59:11;;;;;;;2.43;2.10;;;;;;;14.85;100.00;100920.97;5070348;28;20469;-74
2022/06/28 02:01:37;;;;;;;1.53;1.43;;;;;;;14.77;100.00;100924.56;5070771;28;20171;-73
2022/06/28 02:04:25;;;;;;;3.10;2.60;;;;;;;14.69;100.00;100916.31;5070420;28;20562;-73
2022/06/28 02:06:51;;;;;;;3.60;2.17;;;;;;;14.60;100.00;100927.31;5070298;28;20541;-75
2022/06/28 02:09:16;;;;;;;4.00;3.00;;;;;;;14.57;100.00;100922.47;5070194;28;20198;-72
2022/06/28 02:11:42;;;;;;;3.03;2.83;;;;;;;14.55;100.00;100927.50;5070387;28;20698;-73
2022/06/28 02:14:08;;;;;;;5.23;2.33;;;;;;;14.52;100.00;100920.72;5070477;28;20174;-75
2022/06/28 02:16:33;;;;;;;1.43;1.33;;;;;;;14.51;100.00;100929.28;5070122;28;20430;-75
2022/06/28 02:18:59;;;;;;;2.77;2.57;;;;;;;14.48;100.00;100929.94;5070082;28;20185;-74
2022/06/28 02:21:24;;;;;;;0.70;0.70;;;;;;;14.45;100.00;100930.56;5070307;28;20178;-76
2022/06/28 02:23:51;;;;;;;1.30;1.13;;;;;;;14.41;100.00;100932.34;5073255;28;20182;-77
2022/06/28 02:26:16;;;;;;;0.97;0.97;;;;;;;14.33;100.00;100933.97;5073949;28;20178;-75
2022/06/28 02:28:42;;;;;;;2.50;2.33;;;;;;;14.29;100.00;100933.78;5073387;28;20217;-76
2022/06/28 02:31:09;;;;;;;1.80;1.70;;;;;;;14.26;100.00;100934.44;5074031;28;20527;-75
2022/06/28 02:33:34;;;;;;;1.00;1.00;;;;;;;14.24;100.00;100935.91;5073900;28;20179;-75
2022/06/28 02:41:27;;;;;;;0.90;0.90;;;;;;;14.05;100.00;100922.50;5073918;28;20169;-75
2022/06/28 02:43:53;;;;;;;1.10;1.10;;;;;;;14.01;100.00;100929.75;5073771;28;20170;-73
2022/06/28 02:46:18;;;;;;;0.33;0.33;;;;;;;13.99;100.00;100926.53;5073628;28;20274;-73
2022/06/28 02:48:43;;;;;;;1.43;1.33;;;;;;;13.97;100.00;100926.84;5072687;28;20202;-73
2022/06/28 02:51:09;;;;;;;0.67;0.67;;;;;;;13.93;100.00;100931.38;5073475;28;20224;-73
2022/06/28 02:53:34;;;;;;;0.77;0.77;;;;;;;13.93;100.00;100933.31;5073541;28;20166;-74
2022/06/28 02:55:59;;;;;;;0.40;0.40;;;;;;;13.93;100.00;100945.13;5073532;28;20174;-73
2022/06/28 02:58:25;;;;;;;1.07;1.07;;;;;;;13.93;100.00;100938.81;5073326;28;20756;-74
2022/06/28 03:00:50;;;;;;;0.60;0.60;;;;;;;13.92;100.00;100942.69;5073459;28;20167;-74
2022/06/28 03:03:16;;;;;;;0.00;0.00;;;;;;;13.86;100.00;100950.25;5073689;28;20661;-73
2022/06/28 03:05:41;;;;;;;0.20;0.20;;;;;;;13.82;100.00;100940.25;5073154;28;20198;-73
2022/06/28 03:08:07;;;;;;;0.43;0.43;;;;;;;13.73;100.00;100942.97;5072877;28;20214;-73
2022/06/28 03:10:32;;;;;;;1.13;1.13;;;;;;;13.65;100.00;100944.59;5073219;28;20182;-73
2022/06/28 03:12:57;;;;;;;3.07;2.80;;;;;;;13.58;100.00;100949.72;5073271;28;20202;-73
2022/06/28 03:15:23;;;;;;;1.93;1.83;;;;;;;13.49;100.00;100942.59;5073142;28;20182;-73
2022/06/28 03:17:48;;;;;;;3.83;1.63;;;;;;;13.48;100.00;100949.22;5072567;28;20257;-73
2022/06/28 03:20:14;;;;;;;2.20;2.07;;;;;;;13.46;100.00;100940.50;5073000;28;20289;-73
2022/06/28 03:22:39;;;;;;;2.90;2.30;;;;;;;13.47;100.00;100962.13;5073114;28;20178;-73
2022/06/28 03:25:05;;;;;;;8.50;2.93;;;;;;;13.49;100.00;100961.81;5073054;28;20251;-73
2022/06/28 03:27:31;;;;;;;2.67;2.57;;;;;;;13.48;100.00;100958.28;5054764;28;20194;-73
2022/06/28 03:29:56;;;;;;;2.50;2.40;;;;;;;13.49;100.00;100972.81;5072636;28;20166;-68
2022/06/28 03:32:21;;;;;;;3.23;3.03;;;;;;;13.47;100.00;100972.31;5072903;28;20188;-74
2022/06/28 03:34:47;;;;;;;5.17;4.47;;;;;;;13.46;100.00;100974.25;5072559;28;20653;-73
2022/06/28 03:37:12;;;;;;;2.57;2.37;;;;;;;13.44;100.00;100972.94;5072644;28;20178;-73
2022/06/28 03:39:37;;;;;;;1.33;1.23;;;;;;;13.41;100.00;100974.38;5072547;28;20176;-73
2022/06/28 03:42:03;;;;;;;3.83;2.90;;;;;;;13.37;100.00;100974.22;5072574;28;20177;-73
2022/06/28 03:44:29;;;;;;;1.43;1.33;;;;;;;13.35;100.00;100984.69;5072510;28;20171;-73
2022/06/28 03:46:54;;;;;;;2.60;2.40;;;;;;;13.33;100.00;100983.41;5071666;28;20198;-73
2022/06/28 03:49:19;;;;;;;3.80;2.50;;;;;;;13.30;100.00;100981.25;5072245;28;20700;-74
2022/06/28 03:51:45;;;;;;;4.37;4.07;;;;;;;13.26;100.00;100975.59;5072247;28;20170;-73
2022/06/28 03:54:11;;;;;;;3.37;3.17;;;;;;;13.26;100.00;100988.53;5072352;28;20158;-73
2022/06/28 03:56:36;;;;;;;1.07;1.07;;;;;;;13.24;100.00;100991.59;5072490;28;20170;-73
2022/06/28 03:59:02;;;;;;;4.77;3.67;;;;;;;13.25;100.00;100997.88;5071988;28;20253;-74
2022/06/28 04:01:27;;;;;;;4.80;2.50;;;;;;;13.24;100.00;100996.25;5072082;28;20264;-73
2022/06/28 04:03:52;;;;;;;1.83;1.77;;;;;;;13.23;100.00;101000.13;5072215;28;20685;-75
2022/06/28 04:06:18;;;;;;;2.67;2.47;;;;;;;13.24;100.00;100997.06;5071946;28;20178;-73
2022/06/28 04:08:43;;;;;;;1.73;1.37;;;;;;;13.27;100.00;101004.66;5071599;28;20206;-74
2022/06/28 04:11:14;;;;;;;0.07;0.07;;;;;;;13.31;100.00;101002.13;5072068;28;20189;-73
2022/06/28 04:13:41;;;;;;;0.07;0.07;;;;;;;13.36;100.00;101005.53;5071943;28;20174;-75
2022/06/28 04:16:07;;;;;;;0.33;0.33;;;;;;;13.44;100.00;101014.09;5072315;28;20170;-74
2022/06/28 04:18:33;;;;;;;0.30;0.30;;;;;;;13.48;100.00;101015.09;5071731;28;20175;-78
2022/06/28 04:20:59;;;;;;;0.00;0.00;;;;;;;13.50;100.00;101019.16;5072124;28;20217;-74
2022/06/28 04:23:24;;;;;;;0.60;0.60;;;;;;;13.57;100.00;101019.50;5071925;28;20653;-73
2022/06/28 04:25:50;;;;;;;6.63;2.57;;;;;;;13.59;100.00;101022.72;5072044;28;20175;-74
2022/06/28 04:28:15;;;;;;;0.63;0.63;;;;;;;13.63;100.00;101022.91;5071498;28;20277;-73
2022/06/28 04:30:40;;;;;;;0.83;0.83;;;;;;;13.67;100.00;101023.91;5071950;28;20174;-74
2022/06/28 04:33:06;;;;;;;0.80;0.80;;;;;;;13.70;100.00;101026.81;5053681;28;20178;-73
2022/06/28 04:35:32;;;;;;;0.60;0.60;;;;;;;13.76;100.00;101032.16;5053542;28;20608;-74
2022/06/28 04:37:58;;;;;;;1.57;1.47;;;;;;;13.75;100.00;101028.63;5071211;28;20638;-73
2022/06/28 04:40:23;;;;;;;1.60;1.50;;;;;;;13.80;100.00;101039.44;5071279;28;20194;-74
2022/06/28 04:42:48;;;;;;;0.70;0.70;;;;;;;13.80;100.00;101033.94;5071516;28;20231;-73
2022/06/28 04:45:14;;;;;;;1.10;1.10;;;;;;;13.76;100.00;101034.91;5071541;28;20182;-74
2022/06/28 04:47:39;;;;;;;4.97;4.50;;;;;;;13.75;100.00;101041.53;5070332;28;20410;-74
2022/06/28 04:50:05;;;;;;;2.70;2.60;;;;;;;13.70;100.00;101036.97;5071672;28;20186;-74
2022/06/28 04:52:30;;;;;;;0.43;0.43;;;;;;;13.67;100.00;101037.63;5071298;28;20270;-73
2022/06/28 04:54:56;;;;;;;1.63;1.53;;;;;;;13.66;100.00;101036.81;5071511;28;20175;-73
2022/06/28 04:57:21;;;;;;;5.53;1.63;;;;;;;13.70;100.00;101043.28;5071160;28;20182;-73
2022/06/28 04:59:46;;;;;;;0.00;0.00;;;;;;;13.81;100.00;101041.06;5071019;28;20524;-74
2022/06/28 05:02:11;;;;;;;1.70;1.60;;;;;;;13.94;100.00;101047.56;5071057;28;20676;-73
2022/06/28 05:04:37;;;;;;;0.77;0.77;;;;;;;14.09;100.00;101049.06;5070960;28;20183;-74
2022/06/28 05:07:02;;;;;;;3.20;1.13;;;;;;;14.21;100.00;101046.50;5071202;28;20171;-73
2022/06/28 05:09:28;;;;;;;3.47;3.20;;;;;;;14.29;100.00;101056.69;5070677;28;20206;-73
2022/06/28 05:11:53;;;;;;;2.50;2.40;;;;;;;14.32;100.00;101057.97;5070865;28;20308;-74
2022/06/28 05:14:18;;;;;;;2.50;2.30;;;;;;;14.33;100.00;101048.63;5070933;28;20182;-73
2022/06/28 05:16:45;;;;;;;0.47;0.43;;;;;;;14.36;100.00;101053.47;5071356;28;20250;-73
2022/06/28 05:19:11;;;;;;;2.10;1.27;;;;;;;14.43;100.00;101051.03;5070874;28;20197;-73
2022/06/28 05:21:36;;;;;;;1.93;1.07;;;;;;;14.51;100.00;101055.78;5071265;28;20625;-74
2022/06/28 05:24:02;;;;;;;2.27;2.17;;;;;;;14.54;100.00;101057.88;5071158;28;20175;-73
2022/06/28 05:26:27;;;;;;;1.00;1.00;;;;;;;14.61;100.00;101049.97;5071555;28;20182;-74
2022/06/28 05:28:52;;;;;;;1.53;1.43;;;;;;;14.67;100.00;101050.59;5070464;28;20707;-75
2022/06/28 05:31:18;;;;;;;4.10;3.80;;;;;;;14.69;100.00;101046.38;5071182;28;20648;-74
2022/06/28 05:33:43;;;;;;;2.70;2.40;;;;;;;14.77;100.00;101042.84;5071030;28;20171;-74
2022/06/28 05:36:08;;;;;;;4.53;3.60;;;;;;;14.79;100.00;101037.00;5070866;28;20174;-74
2022/06/28 05:38:34;;;;;;;3.43;3.20;;;;;;;14.78;100.00;101041.69;5070508;28;20170;-73
2022/06/28 05:40:59;;;;;;;5.70;4.67;;;;;;;14.84;100.00;101036.84;5070838;28;20654;-74
2022/06/28 05:43:24;;;;;;;9.53;5.80;;;;;;;14.88;100.00;101041.34;5070940;28;20182;-74
2022/06/28 05:45:50;;;;;;;3.43;3.20;;;;;;;14.95;100.00;101045.56;5070766;28;20210;-73
2022/06/28 05:48:15;;;;;;;2.30;2.20;;;;;;;15.00;100.00;101040.69;5069851;28;20205;-73
2022/06/28 05:50:40;;;;;;;2.07;1.97;;;;;;;15.10;100.00;101045.06;5070728;28;20491;-73
2022/06/28 05:53:06;;;;;;;10.90;2.57;;;;;;;15.09;100.00;101038.75;5070688;28;20205;-74
2022/06/28 05:55:31;;;;;;;3.20;3.00;;;;;;;15.15;100.00;101045.69;5070592;28;20204;-74
2022/06/28 05:57:57;;;;;;;2.90;2.57;;;;;;;15.14;99.28;101046.00;5071864;28;20178;-73
2022/06/28 06:00:22;;;;;;;6.57;5.80;;;;;;;15.18;98.92;101049.72;5074886;28;20690;-76
2022/06/28 06:02:47;;;;;;;3.50;2.13;;;;;;;15.19;98.20;101051.34;5074814;28;20181;-73
2022/06/28 06:05:13;;;;;;;3.37;3.17;;;;;;;15.23;98.01;101046.81;5074831;28;20166;-74
2022/06/28 06:07:39;;;;;;;3.67;3.47;;;;;;;15.21;96.34;101054.59;5074311;28;20677;-73
2022/06/28 06:10:05;;;;;;;20.03;3.67;;;;;;;15.29;96.95;101050.19;5074593;28;20179;-74
2022/06/28 06:12:30;;;;;;;1.73;1.53;;;;;;;15.39;96.21;101061.66;5074411;28;20163;-74
2022/06/28 06:14:55;;;;;;;3.57;3.27;;;;;;;15.42;95.86;101061.00;5074392;28;20185;-75
2022/06/28 06:17:21;;;;;;;4.13;3.83;;;;;;;15.48;94.58;101059.69;5074214;28;20171;-74
2022/06/28 06:19:46;;;;;;;0.10;0.10;;;;;;;15.55;92.95;101058.38;5073904;28;20179;-74
2022/06/28 06:22:11;;;;;;;3.37;2.20;;;;;;;15.64;93.11;101056.44;5074181;28;20175;-74
2022/06/28 06:24:37;;;;;;;2.93;2.73;;;;;;;15.60;92.05;101063.72;5074052;28;20175;-75
2022/06/28 06:27:02;;;;;;;1.70;1.60;;;;;;;15.66;90.84;101063.22;5074167;28;20189;-74
2022/06/28 06:29:29;;;;;;;0.30;0.30;;;;;;;15.71;91.20;101063.03;5073675;28;20206;-74
2022/06/28 06:31:54;;;;;;;0.37;0.37;;;;;;;15.78;90.96;101068.03;5074010;28;20227;-75
2022/06/28 06:34:20;;;;;;;0.87;0.87;;;;;;;15.85;90.56;101067.50;5074085;28;20186;-75
2022/06/28 06:36:46;;;;;;;0.20;0.20;;;;;;;15.96;89.79;101066.81;5073754;28;20178;-74
2022/06/28 06:39:12;;;;;;;0.00;0.00;;;;;;;16.09;89.38;101066.91;5055956;28;20575;-74
2022/06/28 06:41:38;;;;;;;0.10;0.10;;;;;;;16.26;90.04;101069.56;5073849;28;20657;-74
2022/06/28 06:44:03;;;;;;;0.57;0.53;;;;;;;16.35;88.59;101068.34;5073778;28;20174;-75
2022/06/28 06:46:29;;;;;;;0.40;0.40;;;;;;;16.43;87.66;101080.47;5073739;28;20174;-75
2022/06/28 06:48:55;;;;;;;1.43;1.33;;;;;;;16.26;84.87;101075.06;5072620;28;20709;-77
2022/06/28 06:51:20;;;;;;;2.40;2.30;;;;;;;16.28;85.69;101076.34;5073666;28;20181;-76
2022/06/28 06:53:46;;;;;;;0.00;0.00;;;;;;;16.32;85.43;101076.47;5073618;28;20257;-81
2022/06/28 06:56:12;;;;;;;0.30;0.30;;;;;;;16.36;84.01;101069.97;5073886;28;20262;-73
2022/06/28 06:58:38;;;;;;;0.87;0.87;;;;;;;16.50;84.56;101075.22;5073219;28;20626;-73
2022/06/28 07:01:03;;;;;;;1.10;1.07;;;;;;;16.54;82.84;101070.66;5073550;28;20224;-74
2022/06/28 07:03:29;;;;;;;2.67;1.33;;;;;;;16.49;81.70;101076.38;5073573;28;20182;-74
2022/06/28 07:05:54;;;;;;;0.27;0.27;;;;;;;16.61;82.15;101078.38;5072970;28;20545;-73
2022/06/28 07:08:20;;;;;;;0.20;0.20;;;;;;;16.73;81.10;101072.97;5070854;28;20245;-75
2022/06/28 07:10:46;;;;;;;0.00;0.00;;;;;;;16.89;79.13;101073.94;5073133;28;20236;-74
2022/06/28 07:13:12;;;;;;;0.00;0.00;;;;;;;17.11;78.69;101070.03;5073178;28;20183;-74
2022/06/28 07:15:37;;;;;;;0.73;0.73;;;;;;;17.13;77.84;101069.69;5073177;28;20248;-74
2022/06/28 07:18:03;;;;;;;0.97;0.97;;;;;;;17.16;78.51;101067.03;5072717;28;20204;-74
2022/06/28 07:20:28;;;;;;;0.80;0.80;;;;;;;17.13;77.38;101067.72;5073072;28;20204;-74
2022/06/28 07:22:54;;;;;;;1.93;0.27;;;;;;;17.27;78.44;101072.13;5073465;28;20206;-74
2022/06/28 07:25:19;;;;;;;0.00;0.00;;;;;;;17.40;78.12;101074.59;5073336;28;20634;-74
2022/06/28 07:27:45;;;;;;;0.00;0.00;;;;;;;17.42;76.00;101068.72;5072424;28;20190;-74
2022/06/28 07:30:11;;;;;;;0.00;0.00;;;;;;;17.52;75.23;101071.06;5073065;28;20179;-74
2022/06/28 07:32:36;;;;;;;0.67;0.63;;;;;;;17.42;74.40;101071.47;5073039;28;20166;-73
2022/06/28 07:35:02;;;;;;;0.00;0.00;;;;;;;17.58;71.16;101077.16;5072677;28;20646;-73
2022/06/28 07:37:28;;;;;;;0.00;0.00;;;;;;;17.67;70.93;101070.38;5072663;28;20189;-74
2022/06/28 07:39:53;;;;;;;0.10;0.10;;;;;;;17.88;69.82;101075.03;5072436;28;20205;-72
2022/06/28 07:42:18;;;;;;;0.00;0.00;;;;;;;18.04;67.99;101076.75;5072895;28;20178;-74
2022/06/28 07:44:44;;;;;;;0.00;0.00;;;;;;;18.16;67.89;101075.13;5072513;28;20170;-74
2022/06/28 07:47:09;;;;;;;0.73;0.57;;;;;;;18.33;65.32;101067.38;5071645;28;20244;-74
2022/06/28 07:52:33;;;;;;;0.00;0.00;;;;;;;18.48;64.98;101076.91;5072599;28;20205;-74
2022/06/28 07:54:59;;;;;;;0.00;0.00;;;;;;;18.61;64.81;101077.69;5072394;28;20209;-74
2022/06/28 07:57:24;;;;;;;0.00;0.00;;;;;;;18.57;64.36;101080.38;5072325;28;20214;-74
2022/06/28 07:59:50;;;;;;;0.33;0.33;;;;;;;18.81;63.50;101084.25;5072114;28;20174;-74
2022/06/28 08:02:15;;;;;;;0.00;0.00;;;;;;;18.79;62.74;101079.03;5072304;28;20175;-74
2022/06/28 08:04:40;;;;;;;0.13;0.13;;;;;;;18.68;64.03;101081.53;5072510;28;20182;-74
2022/06/28 08:07:05;;;;;;;0.00;0.00;;;;;;;18.82;63.90;101088.63;5072121;28;20210;-73
2022/06/28 08:09:31;;;;;;;0.00;0.00;;;;;;;18.76;62.26;101085.28;5071761;28;20780;-74
2022/06/28 08:11:56;;;;;;;0.10;0.00;;;;;;;18.78;62.41;101091.28;5072143;28;20178;-74
2022/06/28 08:14:22;;;;;;;0.00;0.00;;;;;;;18.68;61.76;101086.25;5072390;28;20180;-73
2022/06/28 08:16:47;;;;;;;0.10;0.10;;;;;;;18.70;62.01;101084.75;5072023;28;20174;-74
2022/06/28 08:19:15;;;;;;;0.00;0.00;;;;;;;18.74;61.70;101090.38;5072114;28;20281;-75
2022/06/28 08:21:41;;;;;;;0.30;0.10;;;;;;;18.89;62.11;101092.41;5071080;28;20163;-74
2022/06/28 08:24:06;;;;;;;0.00;0.00;;;;;;;18.96;61.17;101095.38;5072024;28;20181;-74
2022/06/28 08:26:32;;;;;;;0.00;0.00;;;;;;;18.90;60.82;101082.94;5071694;28;20460;-74
2022/06/28 08:28:57;;;;;;;0.00;0.00;;;;;;;19.05;61.98;101075.84;5071422;28;20609;-74
2022/06/28 08:31:22;;;;;;;0.30;0.30;;;;;;;19.12;60.49;101076.03;5071535;28;20206;-74
2022/06/28 08:33:48;;;;;;;0.00;0.00;;;;;;;19.22;61.23;101085.78;5071545;28;20175;-74
2022/06/28 08:36:13;;;;;;;0.00;0.00;;;;;;;19.30;59.94;101082.06;5071571;28;20633;-74
2022/06/28 08:38:38;;;;;;;0.00;0.00;;;;;;;19.13;59.61;101074.09;5071066;28;20178;-74
2022/06/28 08:41:05;;;;;;;0.00;0.00;;;;;;;19.30;59.64;101079.28;5071623;28;20186;-74
2022/06/28 08:43:31;;;;;;;0.00;0.00;;;;;;;19.12;59.31;101076.03;5071224;28;20186;-74
2022/06/28 08:45:57;;;;;;;1.07;0.20;;;;;;;19.21;60.67;101067.56;5071243;28;20175;-74
2022/06/28 08:48:28;;;;;;;0.00;0.00;;;;;;;19.23;60.16;101082.66;5069924;28;20677;-75
2022/06/28 08:50:53;;;;;;;0.67;0.67;;;;;;;19.30;60.48;101087.59;5071226;28;20253;-75
2022/06/28 08:53:21;;;;;;;0.00;0.00;;;;;;;19.31;60.09;101078.13;5071368;28;20312;-74
2022/06/28 08:55:49;;;;;;;0.40;0.40;;;;;;;19.30;59.71;101079.28;5071258;28;20174;-74
2022/06/28 08:58:15;;;;;;;0.67;0.67;;;;;;;19.35;60.14;101079.03;5070705;28;20185;-75
2022/06/28 09:00:41;;;;;;;0.00;0.00;;;;;;;19.49;60.71;101075.81;5068473;28;20178;-75
2022/06/28 09:03:06;;;;;;;0.00;0.00;;;;;;;19.77;60.21;101079.34;5060506;28;20258;-74
2022/06/28 09:05:31;;;;;;;1.27;0.60;;;;;;;19.92;59.94;101080.50;5065891;28;20179;-75
2022/06/28 09:07:57;;;;;;;0.00;0.00;;;;;;;19.44;59.09;101081.63;5067755;28;20210;-74
2022/06/28 09:10:24;;;;;;;0.00;0.00;;;;;;;19.45;60.70;101081.28;5067322;28;20179;-74
2022/06/28 09:12:58;;;;;;;0.00;0.00;;;;;;;19.48;60.25;101082.53;5071060;28;20307;-74
2022/06/28 09:15:24;;;;;;;0.00;0.00;;;;;;;19.70;61.04;101076.41;5067415;28;20193;-75
2022/06/28 09:17:55;;;;;;;0.00;0.00;;;;;;;19.66;57.73;101075.50;5065809;28;20190;-74
2022/06/28 09:20:34;;;;;;;0.00;0.00;;;;;;;19.78;57.92;101074.63;5057020;22;20194;-73
2022/06/28 09:22:59;;;;;;;0.00;0.00;;;;;;;19.87;57.84;101080.78;5027329;28;20190;-73
2022/06/28 09:25:30;;;;;;;0.00;0.00;;;;;;;20.00;58.35;101078.72;5030543;28;20187;-73
2022/06/28 09:28:00;;;;;;;0.00;0.00;;;;;;;19.81;56.67;101071.13;5029891;28;20225;-73
2022/06/28 09:30:28;;;;;;;0.10;0.10;;;;;;;20.00;56.98;101067.63;5026722;28;20511;-73
2022/06/28 09:32:54;;;;;;;0.00;0.00;;;;;;;19.97;58.15;101076.69;5029895;28;20477;-73
2022/06/28 09:35:19;;;;;;;0.17;0.17;;;;;;;20.14;59.12;101082.66;5030285;28;20172;-73
2022/06/28 09:37:52;;;;;;;0.00;0.00;;;;;;;20.02;57.38;101079.16;5029522;28;20261;-73
2022/06/28 09:40:26;;;;;;;0.30;0.30;;;;;;;20.17;58.32;101076.38;5030420;28;20168;-73
2022/06/28 09:43:03;;;;;;;0.10;0.10;;;;;;;20.14;58.52;101079.88;5030229;28;20178;-74
2022/06/28 09:45:29;;;;;;;0.10;0.10;;;;;;;20.35;57.68;101076.78;5029033;28;20175;-73
2022/06/28 09:47:55;;;;;;;0.00;0.00;;;;;;;20.61;57.13;101070.63;5028235;28;20219;-73
2022/06/28 09:50:21;;;;;;;0.07;0.07;;;;;;;20.75;54.36;101065.38;5030387;28;20192;-73
2022/06/28 09:52:47;;;;;;;0.10;0.10;;;;;;;20.76;54.18;101064.22;5030065;28;20255;-73
2022/06/28 09:55:15;;;;;;;0.00;0.00;;;;;;;20.97;54.63;101069.38;5030143;28;20261;-73
2022/06/28 09:57:44;;;;;;;0.07;0.07;;;;;;;21.23;54.44;101065.13;5025188;28;20187;-73
2022/06/28 10:00:10;;;;;;;0.33;0.33;;;;;;;21.42;53.27;101067.91;5030098;28;20267;-74
2022/06/28 10:02:35;;;;;;;0.00;0.00;;;;;;;21.55;53.11;101065.72;5030285;28;20195;-73
2022/06/28 10:05:01;;;;;;;0.00;0.00;;;;;;;21.59;52.28;101069.38;5025369;28;20651;-74
2022/06/28 10:07:34;;;;;;;0.00;0.00;;;;;;;21.47;52.30;101062.03;5027475;28;20326;-73
2022/06/28 10:10:00;;;;;;;0.00;0.00;;;;;;;21.13;51.37;101058.22;5023898;28;20653;-73
2022/06/28 10:15:20;;;;;;;0.00;0.00;;;;;;;20.70;53.21;101068.47;5029846;28;20190;-71
2022/06/28 10:17:57;;;;;;;0.10;0.10;;;;;;;20.80;54.46;101070.63;5029827;28;20168;-71
2022/06/28 10:20:27;;;;;;;0.00;0.00;;;;;;;20.74;53.86;101063.78;5029182;28;20270;-73
2022/06/28 10:23:34;;;;;;;0.00;0.00;;;;;;;20.84;54.48;101065.19;5030327;28;20168;-73
2022/06/28 10:26:14;;;;;;;0.63;0.63;;;;;;;21.21;55.35;101061.91;5030190;28;20196;-73
2022/06/28 10:28:42;;;;;;;0.00;0.00;;;;;;;21.58;53.93;101071.38;5029277;28;20200;-73
2022/06/28 10:34:11;;;;;;;0.00;0.00;;;;;;;21.92;51.02;101065.94;5036221;28;20218;-75
2022/06/28 10:36:57;;;;;;;0.00;0.00;;;;;;;21.42;50.05;101061.53;5030694;28;20173;-73
2022/06/28 10:39:31;;;;;;;0.00;0.00;;;;;;;21.64;51.41;101069.88;5030509;28;20624;-73
2022/06/28 10:41:59;;;;;;;0.10;0.10;;;;;;;21.68;50.30;101051.25;5031093;28;20508;-73
2022/06/28 10:44:42;;;;;;;0.00;0.00;;;;;;;21.79;50.52;101062.56;5032587;28;20177;-73
2022/06/28 10:47:07;;;;;;;0.00;0.00;;;;;;;22.09;50.34;101062.66;5032597;28;20183;-74
2022/06/28 10:49:42;;;;;;;0.00;0.00;;;;;;;22.08;50.90;101060.25;5033698;28;20600;-73
2022/06/28 10:52:16;;;;;;;0.47;0.47;;;;;;;21.41;50.37;101065.47;5034007;28;20192;-73
2022/06/28 10:55:04;;;;;;;0.23;0.10;;;;;;;21.08;52.07;101047.38;5032638;28;20331;-74
2022/06/28 10:57:32;;;;;;;0.00;0.00;;;;;;;21.25;51.65;101046.91;5033535;28;20274;-73
2022/06/28 11:00:03;;;;;;;0.00;0.00;;;;;;;21.11;50.21;101046.63;5032402;28;20189;-73
2022/06/28 11:02:57;;;;;;;0.10;0.10;;;;;;;21.09;51.16;101043.41;5034139;28;20184;-74
2022/06/28 11:05:44;;;;;;;0.00;0.00;;;;;;;21.14;50.91;101037.56;5033813;28;20630;-74
2022/06/28 11:08:11;;;;;;;0.00;0.00;;;;;;;21.34;50.60;101038.34;5032047;28;20223;-73
2022/06/28 11:10:37;;;;;;;0.30;0.27;;;;;;;21.97;52.53;101040.59;5032286;28;20182;-73
2022/06/28 11:13:19;;;;;;;0.10;0.10;;;;;;;22.56;49.23;101048.22;5034173;28;20255;-73
2022/06/28 11:15:44;;;;;;;0.50;0.40;;;;;;;22.34;47.82;101040.78;5032200;28;20185;-73
2022/06/28 11:18:20;;;;;;;0.00;0.00;;;;;;;22.54;48.89;101033.88;5032779;28;20628;-74
2022/06/28 11:20:45;;;;;;;0.00;0.00;;;;;;;22.56;44.59;101028.72;5032045;28;20830;-74
2022/06/28 11:23:29;;;;;;;0.37;0.37;;;;;;;22.75;46.73;101024.19;5033524;28;20256;-73
2022/06/28 11:28:57;;;;;;;0.00;0.00;;;;;;;22.89;46.03;101021.59;5032755;28;20207;-73
2022/06/28 11:31:25;;;;;;;0.30;0.30;;;;;;;22.51;46.53;101017.91;5033493;28;20176;-74
2022/06/28 11:33:50;;;;;;;0.10;0.10;;;;;;;22.55;47.95;101015.97;5033278;28;20268;-73
2022/06/28 11:36:21;;;;;;;0.00;0.00;;;;;;;22.65;48.40;101011.72;5033077;28;20255;-73
2022/06/28 11:38:46;;;;;;;0.30;0.30;;;;;;;22.65;45.63;101016.50;5032260;28;20178;-73